Terminal Aerodrome Forecast
Issued by NWS Missoula, MT

Home | Current Version | Previous Version | Text Only | Print | Product List | Glossary On
Versions: 1 2 3 4 5 6 7 8 9 10 11 12 13 14 15
108
FTUS45 KMSO 242326
TAFBTM
TAF
KBTM 242326Z 2500/2524 29010KT P6SM -SHRA SCT035 OVC050
     FM250300 31006KT 4SM -SN BR SCT015 OVC025
     FM250900 31005KT P6SM VCSH BKN035=

USA.gov is the U.S. government's official web portal to all federal, state and local government web resources and services.